createdAt,value
2024-02-10T00:02:58.856Z,6.60
2024-02-10T00:06:01.785Z,7.05
2024-02-10T00:09:08.141Z,7.13
2024-02-10T00:12:11.095Z,8.27
2024-02-10T00:15:14.396Z,6.32
2024-02-10T00:18:19.894Z,5.93
2024-02-10T00:21:22.332Z,8.23
2024-02-10T00:24:27.888Z,7.63
2024-02-10T00:27:30.215Z,7.65
2024-02-10T00:30:32.500Z,6.05
2024-02-10T00:33:35.373Z,9.70
2024-02-10T00:36:37.766Z,5.32
2024-02-10T00:39:40.117Z,6.93
2024-02-10T00:42:43.684Z,4.93
2024-02-10T00:45:48.170Z,7.22
2024-02-10T00:48:54.691Z,9.18
2024-02-10T00:51:58.682Z,7.43
2024-02-10T00:55:00.980Z,8.45
2024-02-10T00:58:06.921Z,5.65
2024-02-10T01:01:14.563Z,8.40
2024-02-10T01:04:17.146Z,6.22
2024-02-10T01:07:19.482Z,8.23
2024-02-10T01:10:22.101Z,6.90
2024-02-10T01:13:27.203Z,6.20
2024-02-10T01:16:29.558Z,7.20
2024-02-10T01:19:31.971Z,4.13
2024-02-10T01:22:34.405Z,7.53
2024-02-10T01:25:36.732Z,4.65
2024-02-10T01:28:39.870Z,5.72
2024-02-10T01:31:43.027Z,8.05
2024-02-10T01:34:45.474Z,8.13
2024-02-10T01:37:48.001Z,6.72
2024-02-10T01:40:52.340Z,8.00
2024-02-10T01:43:54.914Z,7.90
2024-02-10T01:46:57.213Z,8.05
2024-02-10T01:49:59.662Z,5.75
2024-02-10T01:53:03.349Z,7.22
2024-02-10T01:56:06.149Z,6.72
2024-02-10T01:59:09.253Z,5.47
2024-02-10T02:02:15.994Z,7.25
2024-02-10T02:05:19.915Z,4.95
2024-02-10T02:08:22.276Z,7.82
2024-02-10T02:11:24.863Z,7.28
2024-02-10T02:14:27.189Z,5.53
2024-02-10T02:17:29.321Z,8.52
2024-02-10T02:20:31.872Z,4.68
2024-02-10T02:23:37.139Z,9.50
2024-02-10T02:26:39.459Z,5.90
2024-02-10T02:29:41.548Z,5.38
2024-02-10T02:32:43.720Z,5.47
2024-02-10T02:35:46.199Z,6.30
2024-02-10T02:38:48.513Z,8.30
2024-02-10T02:41:51.340Z,5.80
2024-02-10T02:44:53.651Z,6.95
2024-02-10T02:48:02.665Z,6.53
2024-02-10T02:51:05.364Z,7.35
2024-02-10T02:54:07.676Z,5.43
2024-02-10T02:57:09.958Z,7.22
2024-02-10T03:00:13.053Z,6.07
2024-02-10T03:03:16.536Z,5.82
2024-02-10T03:06:22.497Z,5.05
2024-02-10T03:09:24.845Z,5.32
2024-02-10T03:12:26.873Z,6.82
2024-02-10T03:15:31.981Z,7.65
2024-02-10T03:18:34.276Z,7.15
2024-02-10T03:21:37.294Z,5.60
2024-02-10T03:24:39.913Z,7.55
2024-02-10T03:27:43.654Z,6.88
2024-02-10T03:30:46.466Z,6.22
2024-02-10T03:33:48.788Z,7.18
2024-02-10T03:36:51.147Z,7.18
2024-02-10T03:39:53.172Z,7.68
2024-02-10T03:42:55.234Z,9.05
2024-02-10T03:45:57.544Z,6.93
2024-02-10T03:49:03.033Z,6.88
2024-02-10T03:52:05.722Z,7.55
2024-02-10T03:55:11.807Z,5.88
2024-02-10T03:58:17.726Z,7.47
2024-02-10T04:01:20.441Z,6.80
2024-02-10T04:04:23.182Z,9.20
2024-02-10T04:07:28.224Z,7.03
2024-02-10T04:10:30.662Z,7.85
2024-02-10T04:13:36.644Z,8.52
2024-02-10T04:16:43.109Z,6.35
2024-02-10T04:19:45.502Z,5.53
2024-02-10T04:22:48.293Z,8.48
2024-02-10T04:25:50.693Z,5.50
2024-02-10T04:28:53.132Z,5.70
2024-02-10T04:32:00.390Z,6.75
2024-02-10T04:35:03.018Z,5.75
2024-02-10T04:38:09.877Z,6.60
2024-02-10T04:41:12.244Z,7.45
2024-02-10T04:44:14.596Z,7.20
2024-02-10T04:47:17.368Z,6.13
2024-02-10T04:50:21.026Z,4.95
2024-02-10T04:53:26.391Z,6.63
2024-02-10T04:56:29.355Z,4.20
2024-02-10T04:59:31.708Z,9.88
2024-02-10T05:02:34.434Z,5.07
2024-02-10T05:05:36.929Z,8.40
2024-02-10T05:08:40.183Z,6.25
2024-02-10T05:11:42.623Z,7.90
2024-02-10T05:14:45.044Z,6.32
2024-02-10T05:17:50.466Z,7.30
2024-02-10T05:20:53.493Z,8.23
2024-02-10T05:23:56.305Z,8.43
2024-02-10T05:26:58.582Z,6.50
2024-02-10T05:30:00.977Z,7.38
2024-02-10T05:33:06.400Z,9.23
2024-02-10T05:36:12.110Z,6.10
2024-02-10T05:39:17.797Z,6.00
2024-02-10T05:42:21.649Z,8.02
2024-02-10T05:45:23.846Z,10.10
2024-02-10T05:48:31.083Z,5.55
2024-02-10T05:51:40.191Z,5.57
2024-02-10T05:54:42.722Z,8.38
2024-02-10T05:57:45.001Z,5.53
2024-02-10T06:00:49.233Z,8.05
2024-02-10T06:03:53.657Z,6.82
2024-02-10T06:06:59.000Z,6.20
2024-02-10T06:10:01.353Z,7.07
2024-02-10T06:13:04.323Z,6.75
2024-02-10T06:16:06.933Z,6.57
2024-02-10T06:19:09.319Z,5.43
2024-02-10T06:22:11.639Z,8.18
2024-02-10T06:25:14.436Z,6.00
2024-02-10T06:28:18.234Z,5.53
2024-02-10T06:31:20.681Z,8.52
2024-02-10T06:34:22.893Z,7.55
2024-02-10T06:37:26.471Z,9.15
2024-02-10T06:40:28.997Z,8.25
2024-02-10T06:43:35.555Z,9.45
2024-02-10T06:46:37.859Z,8.27
2024-02-10T06:49:40.086Z,6.10
2024-02-10T06:52:43.941Z,5.70
2024-02-10T06:55:47.038Z,7.53
2024-02-10T06:58:50.579Z,11.05
2024-02-10T07:01:56.232Z,6.82
2024-02-10T07:04:58.872Z,6.32
2024-02-10T07:08:01.421Z,7.35
2024-02-10T07:11:03.826Z,8.93
2024-02-10T07:14:09.343Z,7.47
2024-02-10T07:17:12.064Z,11.30
2024-02-10T07:20:24.707Z,7.40
2024-02-10T07:23:29.710Z,6.13
2024-02-10T07:26:32.095Z,9.90
2024-02-10T07:29:36.229Z,8.88
2024-02-10T07:32:38.581Z,10.55
2024-02-10T07:35:42.196Z,6.38
2024-02-10T07:38:44.774Z,11.15
2024-02-10T07:41:47.398Z,10.38
2024-02-10T07:44:51.265Z,8.35
2024-02-10T07:47:57.192Z,7.68
2024-02-10T07:50:59.786Z,9.85
2024-02-10T07:54:02.071Z,7.78
2024-02-10T07:57:04.286Z,7.85
2024-02-10T08:00:10.832Z,8.15
2024-02-10T08:03:13.721Z,9.85
2024-02-10T08:06:16.177Z,9.40
2024-02-10T08:09:18.605Z,13.32
2024-02-10T08:12:26.574Z,14.50
2024-02-10T08:15:31.641Z,12.07
2024-02-10T08:18:34.160Z,9.15
2024-02-10T08:21:38.291Z,11.88
2024-02-10T08:24:41.078Z,10.20
2024-02-10T08:27:43.339Z,8.38
2024-02-10T08:30:46.109Z,10.38
2024-02-10T08:33:52.002Z,11.20
2024-02-10T08:36:54.717Z,6.93
2024-02-10T08:39:59.281Z,11.95
2024-02-10T08:43:01.768Z,8.90
2024-02-10T08:46:08.332Z,7.80
2024-02-10T08:49:15.918Z,9.90
2024-02-10T08:52:23.238Z,12.75
2024-02-10T08:55:28.500Z,13.30
2024-02-10T08:58:30.926Z,9.50
2024-02-10T09:01:33.238Z,10.98
2024-02-10T09:04:35.771Z,9.20
2024-02-10T09:07:38.108Z,9.27
2024-02-10T09:10:40.495Z,10.32
2024-02-10T09:13:44.926Z,12.50
2024-02-10T09:16:47.249Z,11.63
2024-02-10T09:19:49.859Z,11.52
2024-02-10T09:22:54.562Z,9.90
2024-02-10T09:25:57.098Z,12.25
2024-02-10T09:28:59.461Z,8.70
2024-02-10T09:32:02.593Z,5.38
2024-02-10T09:35:05.675Z,13.90
2024-02-10T09:38:14.221Z,11.25
2024-02-10T09:41:17.870Z,13.75
2024-02-10T09:44:20.884Z,10.10
2024-02-10T09:47:24.532Z,12.48
2024-02-10T09:50:34.508Z,12.35
2024-02-10T09:53:43.321Z,10.25
2024-02-10T09:56:45.718Z,13.70
2024-02-10T09:59:48.123Z,10.25
2024-02-10T10:02:52.271Z,9.82
2024-02-10T10:05:56.443Z,10.05
2024-02-10T10:09:01.916Z,13.48
2024-02-10T10:12:11.070Z,15.85
2024-02-10T10:15:17.097Z,10.38
2024-02-10T10:18:22.761Z,13.73
2024-02-10T10:21:25.838Z,15.40
2024-02-10T10:24:29.574Z,13.88
2024-02-10T10:27:32.961Z,12.40
2024-02-10T10:30:36.909Z,9.00
2024-02-10T10:33:41.090Z,10.65
2024-02-10T10:36:44.747Z,10.02
2024-02-10T10:39:48.008Z,11.23
2024-02-10T10:42:51.690Z,7.85
2024-02-10T10:45:54.017Z,9.52
2024-02-10T10:48:57.970Z,11.45
2024-02-10T10:52:04.711Z,16.15
2024-02-10T10:55:13.362Z,13.75
2024-02-10T10:58:19.301Z,7.43
2024-02-10T11:01:22.836Z,9.98
2024-02-10T11:04:27.367Z,9.95
2024-02-10T11:07:40.302Z,9.25
2024-02-10T11:10:45.931Z,9.23
2024-02-10T11:13:48.655Z,7.60
2024-02-10T11:16:51.594Z,8.70
2024-02-10T11:20:09.347Z,6.32
2024-02-10T11:23:22.352Z,10.82
2024-02-10T11:26:30.107Z,8.27
2024-02-10T11:29:32.388Z,12.48
2024-02-10T11:32:35.165Z,9.10
2024-02-10T11:35:38.754Z,12.07
2024-02-10T11:38:42.015Z,10.43
2024-02-10T11:41:44.376Z,10.27
2024-02-10T11:44:47.544Z,8.88
2024-02-10T11:47:56.416Z,12.63
2024-02-10T11:51:04.574Z,10.15
2024-02-10T11:54:07.808Z,11.55
2024-02-10T11:57:10.256Z,12.18
2024-02-10T12:00:14.244Z,11.95
2024-02-10T12:03:22.047Z,13.68
2024-02-10T12:06:26.715Z,15.35
2024-02-10T12:09:30.498Z,12.77
2024-02-10T12:12:33.863Z,16.52
2024-02-10T12:15:36.657Z,13.30
2024-02-10T12:18:40.392Z,11.68
2024-02-10T12:21:43.097Z,14.77
2024-02-10T12:24:46.045Z,10.98
2024-02-10T12:27:48.436Z,15.77
2024-02-10T12:30:51.203Z,13.40
2024-02-10T12:33:56.105Z,17.60
2024-02-10T12:36:58.746Z,10.00
2024-02-10T12:40:00.902Z,12.50
2024-02-10T12:43:05.751Z,14.75
2024-02-10T12:46:07.849Z,14.50
2024-02-10T12:49:10.836Z,18.23
2024-02-10T12:52:17.746Z,12.15
2024-02-10T12:55:20.004Z,15.93
2024-02-10T12:58:22.437Z,16.15
2024-02-10T13:01:31.932Z,20.42
2024-02-10T13:04:36.845Z,15.90
2024-02-10T13:07:39.380Z,18.17
2024-02-10T13:10:42.330Z,14.02
2024-02-10T13:13:46.086Z,17.55
2024-02-10T13:16:48.334Z,18.80
2024-02-10T13:19:50.710Z,18.90
2024-02-10T13:23:02.978Z,20.15
2024-02-10T13:26:06.750Z,18.88
2024-02-10T13:29:09.353Z,17.85
2024-02-10T13:32:15.177Z,17.80
2024-02-10T13:35:20.799Z,16.45
2024-02-10T13:38:43.424Z,18.20
2024-02-10T13:42:04.270Z,25.52
2024-02-10T13:45:25.859Z,19.40
2024-02-10T13:48:46.621Z,24.42
2024-02-10T13:52:07.470Z,16.15
2024-02-10T13:55:28.394Z,23.48
2024-02-10T13:58:30.788Z,23.83
2024-02-10T14:01:53.620Z,22.50
2024-02-10T14:05:02.296Z,21.35
2024-02-10T14:08:13.816Z,30.67
2024-02-10T14:11:24.120Z,26.88
2024-02-10T14:14:26.547Z,20.60
2024-02-10T14:17:29.169Z,17.55
2024-02-10T14:20:35.222Z,26.10
2024-02-10T14:23:37.782Z,26.98
2024-02-10T14:26:53.167Z,25.35
2024-02-10T14:29:55.480Z,32.65
2024-02-10T14:32:57.828Z,21.85
2024-02-10T14:36:07.328Z,22.52
2024-02-10T14:39:16.581Z,20.15
2024-02-10T14:42:18.839Z,22.85
2024-02-10T14:45:22.255Z,17.13
2024-02-10T14:48:26.226Z,26.83
2024-02-10T14:51:28.647Z,16.50
2024-02-10T14:54:31.829Z,24.23
2024-02-10T14:57:34.030Z,22.42
2024-02-10T15:00:36.331Z,28.75
2024-02-10T15:03:40.134Z,28.83
2024-02-10T15:06:42.914Z,30.92
2024-02-10T15:09:45.322Z,26.30
2024-02-10T15:12:47.823Z,20.45
2024-02-10T15:15:52.274Z,27.23
2024-02-10T15:18:54.598Z,22.23
2024-02-10T15:22:00.395Z,35.97
2024-02-10T15:25:06.019Z,23.30
2024-02-10T15:28:18.550Z,50.83
2024-02-10T15:31:22.274Z,27.90
2024-02-10T15:34:27.392Z,27.27
2024-02-10T15:37:30.275Z,23.88
2024-02-10T15:40:32.783Z,24.45
2024-02-10T15:43:36.309Z,31.63
2024-02-10T15:46:43.081Z,31.20
2024-02-10T15:49:46.704Z,46.95
2024-02-10T15:52:49.353Z,28.77
2024-02-10T15:55:57.514Z,31.98
2024-02-10T15:59:01.395Z,33.63
2024-02-10T16:02:03.827Z,28.70
2024-02-10T16:05:12.180Z,39.78
2024-02-10T16:08:15.813Z,51.65
2024-02-10T16:11:18.061Z,50.40
2024-02-10T16:14:28.860Z,75.53
2024-02-10T16:17:34.782Z,50.80
2024-02-10T16:20:37.064Z,35.38
2024-02-10T16:23:39.699Z,43.05
2024-02-10T16:26:41.919Z,30.92
2024-02-10T16:29:46.673Z,38.65
2024-02-10T16:32:54.496Z,41.15
2024-02-10T16:35:56.951Z,24.17
2024-02-10T16:39:01.843Z,31.80
2024-02-10T16:42:04.366Z,31.35
2024-02-10T16:45:09.712Z,23.58
2024-02-10T16:48:16.030Z,23.77
2024-02-10T16:51:26.197Z,21.30
2024-02-10T16:54:30.303Z,21.15
2024-02-10T16:57:33.792Z,27.63
2024-02-10T17:00:41.197Z,24.85
2024-02-10T17:03:43.616Z,31.90
2024-02-10T17:06:46.733Z,26.52
2024-02-10T17:09:50.184Z,18.88
2024-02-10T17:12:53.082Z,22.83
2024-02-10T17:15:55.735Z,23.38
2024-02-10T17:18:58.463Z,19.20
2024-02-10T17:22:00.853Z,20.40
2024-02-10T17:25:05.478Z,20.85
2024-02-10T17:28:08.052Z,25.60
2024-02-10T17:31:14.617Z,18.85
2024-02-10T17:34:16.848Z,15.27
2024-02-10T17:37:19.147Z,15.43
2024-02-10T17:40:21.582Z,21.13
2024-02-10T17:43:25.089Z,19.45
2024-02-10T17:46:29.732Z,15.40
2024-02-10T17:49:41.844Z,22.95
2024-02-10T17:52:46.216Z,18.80
2024-02-10T17:55:51.721Z,18.10
2024-02-10T17:58:53.885Z,14.15
2024-02-10T18:01:57.056Z,13.10
2024-02-10T18:05:01.128Z,17.40
2024-02-10T18:08:05.250Z,19.23
2024-02-10T18:11:07.652Z,18.30
2024-02-10T18:14:10.300Z,14.68
2024-02-10T18:17:13.725Z,20.75
2024-02-10T18:20:16.837Z,17.98
2024-02-10T18:23:19.215Z,17.20
2024-02-10T18:26:24.574Z,17.85
2024-02-10T18:29:27.210Z,32.33
2024-02-10T18:32:30.055Z,32.78
2024-02-10T18:35:32.304Z,48.20
2024-02-10T18:38:35.001Z,37.95
2024-02-10T18:41:37.185Z,33.70
2024-02-10T18:44:41.428Z,26.52
2024-02-10T18:47:44.147Z,17.38
2024-02-10T18:50:47.105Z,27.33
2024-02-10T18:53:49.663Z,23.58
2024-02-10T18:56:53.031Z,16.15
2024-02-10T18:59:55.166Z,18.13
2024-02-10T19:02:57.550Z,24.73
2024-02-10T19:05:59.922Z,16.38
2024-02-10T19:09:02.234Z,26.10
2024-02-10T19:12:04.883Z,14.88
2024-02-10T19:15:11.047Z,14.02
2024-02-10T19:18:15.351Z,21.50
2024-02-10T19:21:17.581Z,20.98
2024-02-10T19:24:19.936Z,15.10
2024-02-10T19:27:22.436Z,14.68
2024-02-10T19:30:25.773Z,11.23
2024-02-10T19:33:28.069Z,16.08
2024-02-10T19:36:31.160Z,13.30
2024-02-10T19:39:34.800Z,12.80
2024-02-10T19:42:37.702Z,25.20
2024-02-10T19:45:39.973Z,16.50
2024-02-10T19:48:43.258Z,18.13
2024-02-10T19:51:45.574Z,12.73
2024-02-10T19:54:48.230Z,20.05
2024-02-10T19:57:50.600Z,15.95
2024-02-10T20:00:53.908Z,17.27
2024-02-10T20:03:57.353Z,12.68
2024-02-10T20:07:01.567Z,12.13
2024-02-10T20:10:04.197Z,16.13
2024-02-10T20:13:09.254Z,14.38
2024-02-10T20:16:12.411Z,15.48
2024-02-10T20:19:16.119Z,16.48
2024-02-10T20:22:19.900Z,14.38
2024-02-10T20:25:23.887Z,19.70
2024-02-10T20:28:27.317Z,18.92
2024-02-10T20:31:29.936Z,15.93
2024-02-10T20:34:32.958Z,14.02
2024-02-10T20:37:35.454Z,13.25
2024-02-10T20:40:38.244Z,17.42
2024-02-10T20:43:42.608Z,14.13
2024-02-10T20:46:47.380Z,12.43
2024-02-10T20:49:49.570Z,20.05
2024-02-10T20:52:52.420Z,12.77
2024-02-10T20:55:54.886Z,14.60
2024-02-10T20:58:57.084Z,13.50
2024-02-10T21:01:59.994Z,29.23
2024-02-10T21:05:06.453Z,25.02
2024-02-10T21:08:09.210Z,26.15
2024-02-10T21:11:11.778Z,16.83
2024-02-10T21:14:15.009Z,24.70
2024-02-10T21:17:17.535Z,27.48
2024-02-10T21:20:19.823Z,15.00
2024-02-10T21:23:25.984Z,18.17
2024-02-10T21:26:28.195Z,13.18
2024-02-10T21:29:30.553Z,13.90
2024-02-10T21:32:34.412Z,20.52
2024-02-10T21:35:41.339Z,13.77
2024-02-10T21:38:43.627Z,16.67
2024-02-10T21:41:48.584Z,28.45
2024-02-10T21:44:54.960Z,19.75
2024-02-10T21:47:57.451Z,18.67
2024-02-10T21:50:59.845Z,17.27
2024-02-10T21:54:02.846Z,13.75
2024-02-10T21:57:06.340Z,21.52
2024-02-10T22:00:16.289Z,15.65
2024-02-10T22:03:19.229Z,16.55
2024-02-10T22:06:23.196Z,12.02
2024-02-10T22:09:25.652Z,26.42
2024-02-10T22:12:27.935Z,19.50
2024-02-10T22:15:30.228Z,24.95
2024-02-10T22:18:32.533Z,16.67
2024-02-10T22:21:34.984Z,19.70
2024-02-10T22:24:37.505Z,17.02
2024-02-10T22:27:41.448Z,15.57
2024-02-10T22:30:43.581Z,10.75
2024-02-10T22:33:47.036Z,13.23
2024-02-10T22:36:49.474Z,8.65
2024-02-10T22:39:55.458Z,13.48
2024-02-10T22:43:00.309Z,7.22
2024-02-10T22:46:03.277Z,10.48
2024-02-10T22:49:05.512Z,18.75
2024-02-10T22:52:10.636Z,13.82
2024-02-10T22:55:12.726Z,13.43
2024-02-10T22:58:17.961Z,12.45
2024-02-10T23:01:25.561Z,12.43
2024-02-10T23:04:28.380Z,10.38
2024-02-10T23:07:35.986Z,11.10
2024-02-10T23:10:38.455Z,13.38
2024-02-10T23:13:48.531Z,10.90
2024-02-10T23:16:51.229Z,13.52
2024-02-10T23:20:00.477Z,9.60
2024-02-10T23:23:05.472Z,16.73
2024-02-10T23:26:11.981Z,13.93
2024-02-10T23:29:15.079Z,15.15
2024-02-10T23:32:17.429Z,12.95
2024-02-10T23:35:23.305Z,13.07
2024-02-10T23:38:28.687Z,14.82
2024-02-10T23:41:30.806Z,19.42
2024-02-10T23:44:33.185Z,22.88
2024-02-10T23:47:35.522Z,19.70
2024-02-10T23:50:38.269Z,22.33
2024-02-10T23:53:42.062Z,22.08
2024-02-10T23:56:45.361Z,15.80
2024-02-10T23:59:47.670Z,25.00
